createdAt,value
2022-08-02T00:01:01.173Z,99390.28
2022-08-02T00:03:03.826Z,99392.63
2022-08-02T00:05:06.941Z,99385.50
2022-08-02T00:07:09.467Z,99399.41
2022-08-02T00:09:12.219Z,99398.97
2022-08-02T00:11:14.763Z,99395.31
2022-08-02T00:13:17.469Z,99393.66
2022-08-02T00:15:20.158Z,99393.63
2022-08-02T00:17:22.798Z,99404.31
2022-08-02T00:19:25.391Z,99397.53
2022-08-02T00:21:27.936Z,99398.66
2022-08-02T00:23:30.480Z,99401.00
2022-08-02T00:25:33.022Z,99396.56
2022-08-02T00:27:35.806Z,99395.66
2022-08-02T00:29:44.433Z,99396.41
2022-08-02T00:31:55.701Z,99397.97
2022-08-02T00:34:27.749Z,99404.31
2022-08-02T00:36:20.782Z,99408.56
2022-08-02T00:38:23.330Z,99406.19
2022-08-02T00:40:25.858Z,99403.41
2022-08-02T00:42:28.352Z,99406.13
2022-08-02T00:44:30.898Z,99406.50
2022-08-02T00:46:33.409Z,99403.31
2022-08-02T00:48:36.356Z,99403.72
2022-08-02T00:50:44.073Z,99407.66
2022-08-02T00:52:46.596Z,99415.56
2022-08-02T00:54:49.130Z,99410.75
2022-08-02T00:56:51.734Z,99411.13
2022-08-02T00:58:54.349Z,99420.22
2022-08-02T01:00:57.829Z,99421.41
2022-08-02T01:03:00.395Z,99422.56
2022-08-02T01:05:03.270Z,99427.75
2022-08-02T01:07:12.876Z,99417.63
2022-08-02T01:09:16.701Z,99430.84
2022-08-02T01:11:19.321Z,99424.78
2022-08-02T01:13:22.190Z,99426.75
2022-08-02T01:15:35.861Z,99423.19
2022-08-02T01:17:48.280Z,99431.88
2022-08-02T01:19:54.026Z,99427.09
2022-08-02T01:22:06.210Z,99415.63
2022-08-02T01:24:43.109Z,99422.78
2022-08-02T01:26:52.181Z,99421.63
2022-08-02T01:28:58.623Z,99424.84
2022-08-02T01:31:25.619Z,99417.75
2022-08-02T01:33:35.811Z,99420.97
2022-08-02T01:35:47.390Z,99417.00
2022-08-02T01:37:59.126Z,99422.91
2022-08-02T01:40:08.467Z,99414.16
2022-08-02T01:42:12.590Z,99419.66
2022-08-02T01:44:17.262Z,99420.56
2022-08-02T01:46:31.882Z,99425.69
2022-08-02T01:48:35.275Z,99416.19
2022-08-02T01:50:39.072Z,99411.41
2022-08-02T01:52:53.297Z,99413.34
2022-08-02T01:55:09.834Z,99414.97
2022-08-02T01:57:23.283Z,99412.63
2022-08-02T01:59:27.875Z,99413.06
2022-08-02T02:01:33.841Z,99412.31
2022-08-02T02:03:41.625Z,99420.66
2022-08-02T02:05:47.770Z,99415.44
2022-08-02T02:07:54.106Z,99413.47
2022-08-02T02:09:59.077Z,99409.16
2022-08-02T02:12:12.745Z,99412.78
2022-08-02T02:14:18.175Z,99409.56
2022-08-02T02:16:22.888Z,99417.19
2022-08-02T02:18:28.438Z,99420.81
2022-08-02T02:20:31.231Z,99411.75
2022-08-02T02:22:33.795Z,99416.19
2022-08-02T02:24:37.587Z,99406.75
2022-08-02T02:26:51.902Z,99410.00
2022-08-02T02:28:58.415Z,99411.31
2022-08-02T02:31:06.846Z,99408.59
2022-08-02T02:33:13.524Z,99416.59
2022-08-02T02:35:18.247Z,99408.31
2022-08-02T02:37:22.907Z,99414.75
2022-08-02T02:39:28.739Z,99404.84
2022-08-02T02:41:31.320Z,99415.22
2022-08-02T02:43:35.639Z,99408.97
2022-08-02T02:45:40.844Z,99409.81
2022-08-02T02:47:43.579Z,99410.22
2022-08-02T02:49:50.625Z,99412.72
2022-08-02T02:51:54.211Z,99404.88
2022-08-02T02:54:30.418Z,99408.50
2022-08-02T02:56:21.279Z,99418.91
2022-08-02T02:58:28.773Z,99415.34
2022-08-02T03:00:50.529Z,99414.53
2022-08-02T03:02:53.330Z,99418.13
2022-08-02T03:04:58.246Z,99410.13
2022-08-02T03:07:01.547Z,99418.97
2022-08-02T03:09:05.902Z,99420.22
2022-08-02T03:11:10.421Z,99417.06
2022-08-02T03:13:13.668Z,99419.88
2022-08-02T03:15:17.839Z,99418.66
2022-08-02T03:17:20.474Z,99414.31
2022-08-02T03:19:23.538Z,99415.97
2022-08-02T03:21:26.139Z,99417.59
2022-08-02T03:23:30.112Z,99414.53
2022-08-02T03:25:32.628Z,99416.47
2022-08-02T03:27:35.471Z,99418.59
2022-08-02T03:29:37.971Z,99416.66
2022-08-02T03:31:44.090Z,99421.50
2022-08-02T03:33:47.261Z,99423.94
2022-08-02T03:35:52.705Z,99421.59
2022-08-02T03:37:56.794Z,99426.81
2022-08-02T03:40:00.297Z,99426.09
2022-08-02T03:42:03.006Z,99427.75
2022-08-02T03:44:08.073Z,99432.56
2022-08-02T03:46:13.302Z,99423.41
2022-08-02T03:48:34.728Z,99434.22
2022-08-02T03:50:38.363Z,99434.59
2022-08-02T03:52:45.073Z,99438.66
2022-08-02T03:54:47.858Z,99438.28
2022-08-02T03:56:50.482Z,99437.97
2022-08-02T03:59:06.881Z,99435.66
2022-08-02T04:01:09.538Z,99434.50
2022-08-02T04:03:12.161Z,99440.97
2022-08-02T04:05:22.532Z,99445.78
2022-08-02T04:08:33.787Z,99436.19
2022-08-02T04:09:47.776Z,99443.00
2022-08-02T04:11:50.482Z,99442.28
2022-08-02T04:13:54.707Z,99444.75
2022-08-02T04:16:10.622Z,99433.25
2022-08-02T04:18:14.418Z,99441.69
2022-08-02T04:20:23.045Z,99437.31
2022-08-02T04:22:44.220Z,99440.56
2022-08-02T04:24:51.612Z,99430.63
2022-08-02T04:26:57.926Z,99432.25
2022-08-02T04:29:10.557Z,99439.06
2022-08-02T04:31:14.356Z,99437.13
2022-08-02T04:33:17.355Z,99441.16
2022-08-02T04:35:20.712Z,99441.97
2022-08-02T04:37:24.679Z,99436.84
2022-08-02T04:39:28.376Z,99441.25
2022-08-02T04:41:43.898Z,99444.47
2022-08-02T04:43:47.030Z,99435.72
2022-08-02T04:45:52.638Z,99445.31
2022-08-02T04:48:04.474Z,99435.78
2022-08-02T04:50:08.352Z,99445.41
2022-08-02T04:52:11.366Z,99447.41
2022-08-02T04:54:14.160Z,99442.22
2022-08-02T04:56:18.056Z,99441.44
2022-08-02T05:00:44.111Z,99441.47
2022-08-02T05:02:47.120Z,99447.47
2022-08-02T05:04:49.742Z,99444.72
2022-08-02T05:06:52.333Z,99447.53
2022-08-02T05:08:54.904Z,99446.34
2022-08-02T05:10:57.428Z,99446.31
2022-08-02T05:13:00.081Z,99444.75
2022-08-02T05:15:03.972Z,99445.94
2022-08-02T05:17:06.983Z,99437.56
2022-08-02T05:19:09.518Z,99439.16
2022-08-02T05:21:12.596Z,99434.75
2022-08-02T05:23:15.140Z,99447.53
2022-08-02T05:25:17.820Z,99443.53
2022-08-02T05:27:21.384Z,99445.53
2022-08-02T05:29:24.496Z,99437.56
2022-08-02T05:31:27.164Z,99440.75
2022-08-02T05:33:29.734Z,99450.31
2022-08-02T05:35:33.479Z,99449.94
2022-08-02T05:37:37.311Z,99446.31
2022-08-02T05:39:55.986Z,99445.53
2022-08-02T05:41:58.888Z,99443.53
2022-08-02T05:44:02.217Z,99436.72
2022-08-02T05:46:04.786Z,99439.53
2022-08-02T05:48:08.242Z,99435.94
2022-08-02T05:50:11.074Z,99435.13
2022-08-02T05:52:18.690Z,99433.13
2022-08-02T05:54:38.434Z,99438.34
2022-08-02T05:56:46.252Z,99435.91
2022-08-02T05:59:05.431Z,99432.34
2022-08-02T06:01:11.600Z,99427.91
2022-08-02T06:03:32.405Z,99425.94
2022-08-02T06:05:41.090Z,99430.72
2022-08-02T06:07:46.487Z,99436.34
2022-08-02T06:09:51.527Z,99428.31
2022-08-02T06:12:02.006Z,99416.75
2022-08-02T06:14:05.950Z,99434.72
2022-08-02T06:16:14.240Z,99429.53
2022-08-02T06:18:18.133Z,99428.72
2022-08-02T06:20:37.354Z,99432.25
2022-08-02T06:22:44.284Z,99425.06
2022-08-02T06:24:50.913Z,99427.44
2022-08-02T06:26:55.427Z,99424.16
2022-08-02T06:28:59.171Z,99422.50
2022-08-02T06:31:02.081Z,99426.50
2022-08-02T06:33:04.711Z,99424.50
2022-08-02T06:35:07.984Z,99422.06
2022-08-02T06:37:28.050Z,99413.63
2022-08-02T06:39:45.110Z,99418.78
2022-08-02T06:41:49.919Z,99416.72
2022-08-02T06:44:26.283Z,99421.13
2022-08-02T06:47:09.396Z,99418.31
2022-08-02T06:48:49.026Z,99423.47
2022-08-02T06:50:51.622Z,99428.69
2022-08-02T06:52:54.340Z,99421.84
2022-08-02T06:55:01.688Z,99416.53
2022-08-02T06:57:06.719Z,99424.44
2022-08-02T06:59:09.229Z,99427.56
2022-08-02T07:01:13.119Z,99416.75
2022-08-02T07:03:15.828Z,99417.53
2022-08-02T07:05:19.334Z,99422.78
2022-08-02T07:07:21.942Z,99414.41
2022-08-02T07:09:24.642Z,99419.59
2022-08-02T07:11:27.211Z,99431.97
2022-08-02T07:13:30.038Z,99419.88
2022-08-02T07:15:33.043Z,99420.22
2022-08-02T07:17:36.458Z,99418.88
2022-08-02T07:19:39.050Z,99403.59
2022-08-02T07:21:59.252Z,99413.28
2022-08-02T07:24:03.613Z,99409.53
2022-08-02T07:26:06.307Z,99405.78
2022-08-02T07:28:22.089Z,99403.63
2022-08-02T07:30:27.108Z,99395.00
2022-08-02T07:32:32.131Z,99406.16
2022-08-02T07:34:34.658Z,99411.69
2022-08-02T07:36:37.319Z,99402.78
2022-08-02T07:38:40.726Z,99405.50
2022-08-02T07:40:43.817Z,99407.75
2022-08-02T07:42:47.562Z,99403.34
2022-08-02T07:44:50.809Z,99409.91
2022-08-02T07:46:53.393Z,99404.47
2022-08-02T07:48:56.061Z,99405.47
2022-08-02T07:50:58.666Z,99404.66
2022-08-02T07:53:01.154Z,99414.84
2022-08-02T07:55:05.370Z,99410.16
2022-08-02T07:57:08.114Z,99414.63
2022-08-02T07:59:10.821Z,99416.16
2022-08-02T08:01:13.351Z,99415.63
2022-08-02T08:03:15.958Z,99403.69
2022-08-02T08:05:18.480Z,99406.66
2022-08-02T08:07:21.004Z,99412.03
2022-08-02T08:09:23.700Z,99403.81
2022-08-02T08:11:26.575Z,99407.72
2022-08-02T08:13:29.157Z,99410.91
2022-08-02T08:15:31.979Z,99404.84
2022-08-02T08:17:35.297Z,99417.38
2022-08-02T08:19:51.235Z,99413.88
2022-08-02T08:21:55.110Z,99414.03
2022-08-02T08:23:57.998Z,99411.69
2022-08-02T08:26:00.922Z,99412.84
2022-08-02T08:28:03.640Z,99411.59
2022-08-02T08:30:06.998Z,99399.78
2022-08-02T08:32:15.681Z,99399.16
2022-08-02T08:34:20.087Z,99392.78
2022-08-02T08:36:22.900Z,99394.06
2022-08-02T08:38:25.596Z,99391.84
2022-08-02T08:40:31.149Z,99399.22
2022-08-02T08:42:34.446Z,99396.66
2022-08-02T08:44:37.091Z,99393.97
2022-08-02T08:46:42.351Z,99402.94
2022-08-02T08:48:48.508Z,99397.22
2022-08-02T08:50:57.168Z,99396.16
2022-08-02T08:53:05.136Z,99391.84
2022-08-02T08:55:10.978Z,99392.75
2022-08-02T08:57:14.767Z,99388.47
2022-08-02T08:59:18.798Z,99386.91
2022-08-02T09:01:21.830Z,99381.56
2022-08-02T09:03:24.432Z,99384.72
2022-08-02T09:05:27.242Z,99384.84
2022-08-02T09:07:29.934Z,99393.44
2022-08-02T09:09:32.461Z,99385.50
2022-08-02T09:11:35.136Z,99387.38
2022-08-02T09:13:45.762Z,99385.31
2022-08-02T09:16:11.086Z,99393.22
2022-08-02T09:18:14.437Z,99386.78
2022-08-02T09:20:17.439Z,99390.84
2022-08-02T09:22:20.123Z,99381.91
2022-08-02T09:24:23.750Z,99389.00
2022-08-02T09:26:27.813Z,99387.69
2022-08-02T09:28:32.149Z,99384.47
2022-08-02T09:30:43.124Z,99370.47
2022-08-02T09:32:48.130Z,99382.31
2022-08-02T09:34:53.510Z,99377.56
2022-08-02T09:36:56.166Z,99385.06
2022-08-02T09:39:04.211Z,99386.00
2022-08-02T09:41:19.607Z,99369.81
2022-08-02T09:43:34.514Z,99385.19
2022-08-02T09:45:37.850Z,99383.91
2022-08-02T09:47:40.351Z,99379.50
2022-08-02T09:49:52.215Z,99378.63
2022-08-02T09:51:57.155Z,99377.25
2022-08-02T09:54:08.738Z,99379.69
2022-08-02T09:56:35.312Z,99379.19
2022-08-02T09:58:39.607Z,99379.66
2022-08-02T10:00:55.879Z,99385.50
2022-08-02T10:03:14.310Z,99378.00
2022-08-02T10:05:30.561Z,99373.97
2022-08-02T10:07:39.042Z,99364.06
2022-08-02T10:09:43.334Z,99368.66
2022-08-02T10:11:51.438Z,99375.88
2022-08-02T10:13:54.609Z,99375.19
2022-08-02T10:15:57.602Z,99380.78
2022-08-02T10:18:00.184Z,99378.03
2022-08-02T10:20:05.010Z,99365.34
2022-08-02T10:22:13.613Z,99368.50
2022-08-02T10:24:25.287Z,99364.78
2022-08-02T10:26:28.270Z,99362.13
2022-08-02T10:28:33.811Z,99372.38
2022-08-02T10:30:45.024Z,99375.81
2022-08-02T10:32:49.728Z,99375.56
2022-08-02T10:34:57.503Z,99374.28
2022-08-02T10:37:06.695Z,99365.72
2022-08-02T10:39:10.170Z,99363.50
2022-08-02T10:41:13.070Z,99365.78
2022-08-02T10:43:37.460Z,99366.28
2022-08-02T10:45:40.311Z,99358.78
2022-08-02T10:48:01.744Z,99364.66
2022-08-02T10:50:04.986Z,99367.28
2022-08-02T10:52:09.136Z,99369.44
2022-08-02T10:54:17.712Z,99371.47
2022-08-02T10:56:46.487Z,99372.31
2022-08-02T10:59:27.545Z,99366.91
2022-08-02T11:01:38.534Z,99365.72
2022-08-02T11:03:45.147Z,99367.63
2022-08-02T11:06:25.793Z,99362.41
2022-08-02T11:08:29.205Z,99360.13
2022-08-02T11:10:38.821Z,99363.97
2022-08-02T11:12:59.798Z,99357.41
2022-08-02T11:15:07.334Z,99370.56
2022-08-02T11:17:12.216Z,99364.69
2022-08-02T11:19:15.030Z,99370.41
2022-08-02T11:21:31.024Z,99365.38
2022-08-02T11:23:44.378Z,99364.44
2022-08-02T11:26:11.335Z,99365.38
2022-08-02T11:28:13.151Z,99362.84
2022-08-02T11:30:16.718Z,99360.19
2022-08-02T11:32:30.815Z,99366.88
2022-08-02T11:34:37.242Z,99365.31
2022-08-02T11:36:51.543Z,99367.88
2022-08-02T11:39:12.618Z,99359.72
2022-08-02T11:41:45.801Z,99363.59
2022-08-02T11:43:47.284Z,99361.44
2022-08-02T11:45:53.959Z,99355.03
2022-08-02T11:47:56.518Z,99348.81
2022-08-02T11:50:09.967Z,99357.66
2022-08-02T11:52:12.926Z,99354.78
2022-08-02T11:54:23.303Z,99349.53
2022-08-02T11:56:32.895Z,99355.84
2022-08-02T11:58:35.505Z,99346.72
2022-08-02T12:00:38.732Z,99346.88
2022-08-02T12:02:47.991Z,99343.66
2022-08-02T12:04:59.073Z,99351.09
2022-08-02T12:07:02.901Z,99348.50
2022-08-02T12:09:18.070Z,99351.56
2022-08-02T12:11:22.091Z,99345.09
2022-08-02T12:13:24.935Z,99340.97
2022-08-02T12:15:44.887Z,99345.16
2022-08-02T12:18:06.546Z,99340.06
2022-08-02T12:20:10.488Z,99345.06
2022-08-02T12:22:18.300Z,99343.94
2022-08-02T12:24:30.034Z,99342.09
2022-08-02T12:26:43.118Z,99331.38
2022-08-02T12:28:46.269Z,99332.19
2022-08-02T12:30:59.317Z,99330.25
2022-08-02T12:33:13.020Z,99335.19
2022-08-02T12:35:26.355Z,99329.19
2022-08-02T12:37:29.689Z,99336.69
2022-08-02T12:39:46.973Z,99342.56
2022-08-02T12:41:57.492Z,99329.19
2022-08-02T12:44:00.633Z,99329.88
2022-08-02T12:46:03.400Z,99331.66
2022-08-02T12:48:06.065Z,99333.28
2022-08-02T12:50:18.396Z,99324.53
2022-08-02T12:52:22.787Z,99324.19
2022-08-02T12:54:31.735Z,99325.31
2022-08-02T12:56:38.556Z,99324.44
2022-08-02T12:58:51.295Z,99319.13
2022-08-02T13:00:57.073Z,99320.13
2022-08-02T13:02:59.908Z,99318.44
2022-08-02T13:05:02.890Z,99314.75
2022-08-02T13:07:06.996Z,99318.13
2022-08-02T13:09:17.496Z,99314.84
2022-08-02T13:11:20.949Z,99310.06
2022-08-02T13:13:23.461Z,99310.09
2022-08-02T13:15:46.514Z,99303.47
2022-08-02T13:17:49.060Z,99306.50
2022-08-02T13:19:53.210Z,99315.75
2022-08-02T13:22:02.348Z,99307.72
2022-08-02T13:24:06.456Z,99309.56
2022-08-02T13:26:31.332Z,99315.34
2022-08-02T13:28:35.528Z,99314.69
2022-08-02T13:30:43.691Z,99308.31
2022-08-02T13:32:46.389Z,99309.75
2022-08-02T13:34:49.144Z,99307.06
2022-08-02T13:36:56.703Z,99308.59
2022-08-02T13:38:59.579Z,99306.66
2022-08-02T13:41:11.954Z,99309.97
2022-08-02T13:43:14.521Z,99309.41
2022-08-02T13:45:17.220Z,99311.88
2022-08-02T13:47:36.493Z,99307.50
2022-08-02T13:49:51.499Z,99311.72
2022-08-02T13:51:55.984Z,99306.63
2022-08-02T13:53:58.561Z,99313.47
2022-08-02T13:56:03.098Z,99309.69
2022-08-02T13:58:05.859Z,99309.66
2022-08-02T14:00:09.145Z,99305.28
2022-08-02T14:02:11.843Z,99319.16
2022-08-02T14:04:19.697Z,99307.53
2022-08-02T14:06:22.761Z,99312.56
2022-08-02T14:08:25.410Z,99309.81
2022-08-02T14:10:28.059Z,99314.84
2022-08-02T14:12:33.632Z,99314.69
2022-08-02T14:14:36.423Z,99316.00
2022-08-02T14:16:39.466Z,99312.69
2022-08-02T14:18:43.066Z,99313.56
2022-08-02T14:20:45.881Z,99313.63
2022-08-02T14:22:48.468Z,99311.09
2022-08-02T14:24:51.188Z,99314.31
2022-08-02T14:26:53.729Z,99317.88
2022-08-02T14:28:56.693Z,99321.63
2022-08-02T14:30:59.310Z,99313.47
2022-08-02T14:33:01.986Z,99321.81
2022-08-02T14:35:04.793Z,99322.75
2022-08-02T14:37:07.499Z,99326.19
2022-08-02T14:39:10.502Z,99322.47
2022-08-02T14:41:13.106Z,99322.50
2022-08-02T14:43:35.843Z,99319.22
2022-08-02T14:45:41.198Z,99319.88
2022-08-02T14:47:45.041Z,99322.75
2022-08-02T14:49:50.304Z,99329.25
2022-08-02T14:51:54.626Z,99329.84
2022-08-02T14:54:03.140Z,99328.25
2022-08-02T14:56:06.378Z,99331.19
2022-08-02T14:58:10.053Z,99334.63
2022-08-02T15:00:13.140Z,99330.81
2022-08-02T15:02:17.314Z,99336.31
2022-08-02T15:04:20.397Z,99336.47
2022-08-02T15:06:23.234Z,99334.94
2022-08-02T15:08:25.833Z,99338.72
2022-08-02T15:10:28.380Z,99336.94
2022-08-02T15:12:30.963Z,99339.19
2022-08-02T15:14:33.617Z,99329.44
2022-08-02T15:16:55.361Z,99346.19
2022-08-02T15:18:58.877Z,99339.59
2022-08-02T15:21:16.163Z,99341.53
2022-08-02T15:23:37.278Z,99347.19
2022-08-02T15:25:41.763Z,99342.66
2022-08-02T15:27:45.146Z,99337.19
2022-08-02T15:29:47.800Z,99346.25
2022-08-02T15:31:50.477Z,99337.84
2022-08-02T15:33:53.169Z,99340.25
2022-08-02T15:35:55.763Z,99343.41
2022-08-02T15:37:58.543Z,99339.75
2022-08-02T15:40:01.322Z,99346.53
2022-08-02T15:42:04.569Z,99353.78
2022-08-02T15:44:10.163Z,99345.78
2022-08-02T15:46:12.773Z,99344.69
2022-08-02T15:48:15.534Z,99347.16
2022-08-02T15:50:18.931Z,99348.53
2022-08-02T15:52:21.643Z,99348.91
2022-08-02T15:54:25.071Z,99342.53
2022-08-02T15:56:27.849Z,99340.59
2022-08-02T15:58:30.459Z,99342.94
2022-08-02T16:00:33.188Z,99346.31
2022-08-02T16:02:35.780Z,99345.75
2022-08-02T16:04:38.370Z,99349.19
2022-08-02T16:06:40.943Z,99349.53
2022-08-02T16:08:53.923Z,99351.22
2022-08-02T16:10:57.555Z,99352.22
2022-08-02T16:13:18.824Z,99353.22
2022-08-02T16:15:21.446Z,99353.66
2022-08-02T16:17:48.569Z,99355.44
2022-08-02T16:19:50.467Z,99350.94
2022-08-02T16:21:56.370Z,99355.75
2022-08-02T16:24:02.610Z,99362.16
2022-08-02T16:26:05.922Z,99359.63
2022-08-02T16:28:08.495Z,99364.16
2022-08-02T16:30:11.802Z,99361.41
2022-08-02T16:32:16.213Z,99369.16
2022-08-02T16:34:19.062Z,99362.03
2022-08-02T16:36:21.622Z,99363.53
2022-08-02T16:38:24.364Z,99364.66
2022-08-02T16:40:27.095Z,99363.19
2022-08-02T16:42:29.688Z,99365.03
2022-08-02T16:44:33.830Z,99371.63
2022-08-02T16:46:37.150Z,99373.50
2022-08-02T16:48:40.007Z,99371.44
2022-08-02T16:50:46.609Z,99369.63
2022-08-02T16:52:49.384Z,99375.72
2022-08-02T16:54:51.969Z,99381.06
2022-08-02T16:56:54.669Z,99381.16
2022-08-02T16:58:59.745Z,99380.09
2022-08-02T17:01:03.269Z,99377.84
2022-08-02T17:03:13.057Z,99384.00
2022-08-02T17:05:17.513Z,99385.94
2022-08-02T17:08:08.204Z,99387.69
2022-08-02T17:10:04.413Z,99391.63
2022-08-02T17:12:06.359Z,99394.69
2022-08-02T17:14:10.355Z,99391.13
2022-08-02T17:16:25.911Z,99398.78
2022-08-02T17:18:29.996Z,99398.44
2022-08-02T17:20:32.790Z,99384.13
2022-08-02T17:22:36.901Z,99388.59
2022-08-02T17:24:39.693Z,99387.44
2022-08-02T17:26:42.347Z,99387.88
2022-08-02T17:29:14.400Z,99386.84
2022-08-02T17:31:07.562Z,99394.75
2022-08-02T17:33:10.240Z,99387.72
2022-08-02T17:35:15.626Z,99382.44
2022-08-02T17:37:19.249Z,99391.84
2022-08-02T17:39:21.902Z,99390.41
2022-08-02T17:41:37.899Z,99380.91
2022-08-02T17:43:47.992Z,99385.16
2022-08-02T17:46:02.173Z,99387.19
2022-08-02T17:48:05.802Z,99387.69
2022-08-02T17:50:08.911Z,99384.78
2022-08-02T17:52:50.593Z,99383.97
2022-08-02T17:54:38.204Z,99391.59
2022-08-02T17:56:42.286Z,99386.06
2022-08-02T17:58:53.763Z,99380.63
2022-08-02T18:00:57.175Z,99382.69
2022-08-02T18:03:00.860Z,99384.31
2022-08-02T18:05:04.267Z,99384.78
2022-08-02T18:07:09.445Z,99386.84
2022-08-02T18:09:12.897Z,99389.34
2022-08-02T18:11:16.749Z,99386.56
2022-08-02T18:13:20.346Z,99391.44
2022-08-02T18:15:23.322Z,99390.66
2022-08-02T18:17:26.698Z,99393.44
2022-08-02T18:21:54.534Z,99384.25
2022-08-02T18:23:58.141Z,99389.91
2022-08-02T18:26:01.883Z,99391.16
2022-08-02T18:28:04.858Z,99377.31
2022-08-02T18:30:09.098Z,99378.94
2022-08-02T18:32:15.268Z,99392.25
2022-08-02T18:34:19.605Z,99389.16
2022-08-02T18:36:27.009Z,99394.06
2022-08-02T18:38:31.245Z,99390.91
2022-08-02T18:40:33.862Z,99393.81
2022-08-02T18:42:36.409Z,99382.25
2022-08-02T18:44:40.177Z,99391.91
2022-08-02T18:46:42.799Z,99387.78
2022-08-02T18:51:09.398Z,99383.69
2022-08-02T18:53:12.038Z,99382.50
2022-08-02T18:55:17.394Z,99378.09
2022-08-02T18:58:17.314Z,99381.38
2022-08-02T19:00:01.536Z,99386.22
2022-08-02T19:02:06.834Z,99386.19
2022-08-02T19:04:09.539Z,99385.75
2022-08-02T19:06:12.157Z,99389.81
2022-08-02T19:08:15.570Z,99395.50
2022-08-02T19:10:18.910Z,99392.72
2022-08-02T19:12:28.243Z,99389.97
2022-08-02T19:14:31.246Z,99400.41
2022-08-02T19:16:37.522Z,99393.56
2022-08-02T19:18:40.732Z,99389.56
2022-08-02T19:20:48.041Z,99399.63
2022-08-02T19:22:53.610Z,99395.66
2022-08-02T19:25:00.113Z,99398.47
2022-08-02T19:27:13.277Z,99402.97
2022-08-02T19:29:18.978Z,99401.00
2022-08-02T19:32:00.203Z,99399.84
2022-08-02T19:34:07.531Z,99401.94
2022-08-02T19:36:11.772Z,99396.34
2022-08-02T19:38:15.074Z,99395.56
2022-08-02T19:40:24.334Z,99401.53
2022-08-02T19:42:27.311Z,99402.38
2022-08-02T19:44:30.063Z,99400.41
2022-08-02T19:46:32.804Z,99400.44
2022-08-02T19:48:35.599Z,99400.03
2022-08-02T19:50:39.901Z,99404.84
2022-08-02T19:52:47.340Z,99400.88
2022-08-02T19:54:58.663Z,99398.47
2022-08-02T19:57:08.359Z,99401.72
2022-08-02T19:59:13.418Z,99400.59
2022-08-02T20:01:18.577Z,99396.56
2022-08-02T20:03:51.117Z,99407.75
2022-08-02T20:05:45.901Z,99393.75
2022-08-02T20:07:56.466Z,99402.22
2022-08-02T20:09:59.329Z,99406.63
2022-08-02T20:12:04.455Z,99403.44
2022-08-02T20:14:07.782Z,99417.50
2022-08-02T20:16:10.360Z,99414.31
2022-08-02T20:18:26.684Z,99416.78
2022-08-02T20:20:32.130Z,99414.03
2022-08-02T20:22:54.777Z,99423.22
2022-08-02T20:24:57.432Z,99416.06
2022-08-02T20:27:01.573Z,99418.09
2022-08-02T20:29:04.801Z,99416.09
2022-08-02T20:31:09.465Z,99416.09
2022-08-02T20:33:21.641Z,99412.94
2022-08-02T20:35:26.325Z,99415.72
2022-08-02T20:38:01.284Z,99414.19
2022-08-02T20:39:52.382Z,99417.38
2022-08-02T20:44:30.917Z,99420.22
2022-08-02T20:46:34.683Z,99414.22
2022-08-02T20:48:37.479Z,99425.06
2022-08-02T20:50:52.237Z,99407.47
2022-08-02T20:52:55.823Z,99413.84
2022-08-02T20:54:58.638Z,99427.47
2022-08-02T20:57:01.146Z,99425.91
2022-08-02T20:59:15.733Z,99427.50
2022-08-02T21:01:18.694Z,99423.09
2022-08-02T21:03:24.043Z,99429.13
2022-08-02T21:05:55.042Z,99422.34
2022-08-02T21:07:59.226Z,99429.94
2022-08-02T21:10:02.063Z,99427.50
2022-08-02T21:12:06.361Z,99437.13
2022-08-02T21:14:15.198Z,99431.53
2022-08-02T21:16:23.211Z,99429.94
2022-08-02T21:18:33.417Z,99433.56
2022-08-02T21:20:44.290Z,99431.56
2022-08-02T21:22:47.069Z,99427.94
2022-08-02T21:24:49.662Z,99424.78
2022-08-02T21:26:53.186Z,99426.38
2022-08-02T21:28:58.315Z,99429.16
2022-08-02T21:31:03.970Z,99427.56
2022-08-02T21:33:06.567Z,99426.38
2022-08-02T21:35:24.770Z,99433.53
2022-08-02T21:39:50.541Z,99433.94
2022-08-02T21:41:57.043Z,99431.53
2022-08-02T21:44:05.131Z,99430.72
2022-08-02T21:46:09.262Z,99439.91
2022-08-02T21:48:17.185Z,99435.09
2022-08-02T21:50:20.486Z,99441.13
2022-08-02T21:52:25.839Z,99433.50
2022-08-02T21:54:28.689Z,99435.09
2022-08-02T21:56:31.303Z,99431.88
2022-08-02T21:58:34.587Z,99431.09
2022-08-02T22:00:37.236Z,99433.50
2022-08-02T22:02:39.982Z,99438.69
2022-08-02T22:04:48.057Z,99434.28
2022-08-02T22:06:51.316Z,99439.88
2022-08-02T22:08:53.994Z,99442.22
2022-08-02T22:11:03.918Z,99447.03
2022-08-02T22:13:06.692Z,99437.44
2022-08-02T22:15:17.084Z,99431.44
2022-08-02T22:17:53.417Z,99449.38
2022-08-02T22:19:54.637Z,99437.75
2022-08-02T22:22:00.573Z,99446.13
2022-08-02T22:24:05.670Z,99445.69
2022-08-02T22:26:15.624Z,99454.47
2022-08-02T22:42:34.708Z,99451.03
2022-08-02T22:44:37.340Z,99447.03
2022-08-02T22:46:40.638Z,99446.22
2022-08-02T22:48:43.951Z,99452.97
2022-08-02T22:50:46.540Z,99447.00
2022-08-02T22:52:50.483Z,99455.34
2022-08-02T22:54:53.150Z,99455.78
2022-08-02T22:56:57.346Z,99445.41
2022-08-02T22:58:56.096Z,99411.78
2022-08-02T22:58:58.831Z,99391.81
2022-08-02T22:58:59.843Z,99391.72
2022-08-02T22:59:03.236Z,99428.75
2022-08-02T23:01:18.450Z,99448.56
2022-08-02T23:03:20.977Z,99443.38
2022-08-02T23:05:23.463Z,99442.53
2022-08-02T23:07:25.869Z,99448.88
2022-08-02T23:09:28.679Z,99447.28
2022-08-02T23:11:31.225Z,99456.78
2022-08-02T23:13:33.661Z,99449.59
2022-08-02T23:15:57.592Z,99453.97
2022-08-02T23:18:18.533Z,99449.16
2022-08-02T23:20:21.335Z,99455.09
2022-08-02T23:22:30.101Z,99448.69
2022-08-02T23:24:35.046Z,99451.44
2022-08-02T23:26:37.540Z,99453.00
2022-08-02T23:28:39.973Z,99456.16
2022-08-02T23:30:42.458Z,99450.22
2022-08-02T23:32:45.134Z,99448.59
2022-08-02T23:34:50.242Z,99460.13
2022-08-02T23:36:52.767Z,99457.34
2022-08-02T23:38:56.657Z,99454.94
2022-08-02T23:41:04.067Z,99452.94
2022-08-02T23:43:14.518Z,99458.09
2022-08-02T23:45:17.768Z,99460.06
2022-08-02T23:47:20.502Z,99456.84
2022-08-02T23:49:24.784Z,99463.16
2022-08-02T23:51:27.410Z,99469.91
2022-08-02T23:53:31.336Z,99475.44
2022-08-02T23:55:33.864Z,99467.44
2022-08-02T23:57:36.436Z,99466.97
2022-08-02T23:59:38.924Z,99474.53
